Time;durP1;ratioP1;P1;durP2;ratioP2;P2;SDS_P1;SDS_P2;PMS_P1;PMS_P2;Temp;Humidity;BMP_temperature;BMP_pressure;BME280_temperature;BME280_humidity;BME280_pressure;Samples;Min_cycle;Max_cycle;Signal;HPM_P1;HPM_P2
2022/03/07 00:00:15;;;;;;;5.53;2.35;;;;;;;16.57;39.20;102767.44;5103072;28;20032;-58
2022/03/07 00:02:41;;;;;;;2.80;1.95;;;;;;;16.56;39.22;102768.41;5103452;28;20100;-58
2022/03/07 00:05:06;;;;;;;2.58;2.00;;;;;;;16.55;39.22;102769.38;5103427;28;20032;-56
2022/03/07 00:07:31;;;;;;;2.80;2.10;;;;;;;16.54;39.23;102762.28;5103276;28;20036;-58
2022/03/07 00:09:57;;;;;;;3.25;2.40;;;;;;;16.53;39.09;102772.19;5106415;28;20035;-58
2022/03/07 00:12:22;;;;;;;2.88;2.10;;;;;;;16.51;39.17;102763.34;5127897;28;20023;-58
2022/03/07 00:14:48;;;;;;;3.10;2.25;;;;;;;16.50;39.22;102772.38;5127363;28;20070;-57
2022/03/07 00:17:13;;;;;;;2.17;1.90;;;;;;;16.49;39.30;102773.34;5128052;28;20027;-58
2022/03/07 00:19:39;;;;;;;2.75;2.00;;;;;;;16.48;39.26;102769.81;5127409;28;20196;-58
2022/03/07 00:22:04;;;;;;;2.45;2.00;;;;;;;16.44;39.31;102764.78;5126977;28;20055;-59
2022/03/07 00:24:29;;;;;;;3.13;2.20;;;;;;;16.45;39.21;102767.34;5130293;28;20028;-57
2022/03/07 00:26:54;;;;;;;2.88;2.30;;;;;;;16.45;39.32;102771.84;5135034;28;20035;-58
2022/03/07 00:29:20;;;;;;;3.25;2.20;;;;;;;16.43;39.27;102771.94;5133058;28;20027;-59
2022/03/07 00:31:45;;;;;;;2.83;1.88;;;;;;;16.41;39.22;102771.19;5130899;28;20039;-57
2022/03/07 00:34:10;;;;;;;2.15;1.95;;;;;;;16.41;39.23;102776.56;5128364;28;20030;-58
2022/03/07 00:36:36;;;;;;;3.30;2.17;;;;;;;16.29;39.28;102752.41;5126703;28;20026;-58
2022/03/07 00:39:01;;;;;;;2.63;1.90;;;;;;;16.39;39.28;102777.63;5126809;28;20024;-58
2022/03/07 00:41:26;;;;;;;3.00;2.33;;;;;;;16.36;39.12;102769.81;5126907;28;20301;-58
2022/03/07 00:43:52;;;;;;;1.98;1.77;;;;;;;16.36;39.24;102781.41;5126342;28;20180;-58
2022/03/07 00:46:17;;;;;;;2.92;2.00;;;;;;;16.34;39.45;102777.09;5126750;28;20030;-57
2022/03/07 00:48:42;;;;;;;2.10;1.90;;;;;;;16.32;39.28;102787.94;5126291;28;20047;-58
2022/03/07 00:51:07;;;;;;;2.50;2.10;;;;;;;16.30;39.17;102784.50;5126471;28;20015;-57
2022/03/07 00:53:33;;;;;;;2.63;2.05;;;;;;;16.30;39.32;102786.31;5126650;28;20015;-57
2022/03/07 00:55:58;;;;;;;2.80;2.42;;;;;;;16.29;39.32;102781.94;5125301;28;20031;-58
2022/03/07 00:58:24;;;;;;;2.78;2.42;;;;;;;16.27;39.28;102784.72;5126254;28;20039;-58
2022/03/07 01:00:49;;;;;;;2.20;1.65;;;;;;;16.25;39.20;102790.19;5126255;28;20268;-58
2022/03/07 01:03:16;;;;;;;2.30;2.10;;;;;;;16.25;39.36;102797.38;5126791;28;20106;-58
2022/03/07 01:05:43;;;;;;;2.05;1.77;;;;;;;16.24;39.31;102790.31;5126493;28;20046;-58
2022/03/07 01:08:08;;;;;;;2.10;1.90;;;;;;;16.22;39.20;102794.91;5125861;28;20035;-56
2022/03/07 01:10:35;;;;;;;2.03;1.80;;;;;;;16.14;39.35;102778.44;5118936;28;20074;-58
2022/03/07 01:13:00;;;;;;;2.25;1.75;;;;;;;16.19;39.26;102787.94;5121497;28;20027;-57
2022/03/07 01:15:25;;;;;;;3.00;1.90;;;;;;;16.19;39.46;102789.75;5126124;28;20042;-57
2022/03/07 01:17:51;;;;;;;1.98;1.67;;;;;;;16.19;39.23;102797.81;5126003;28;20019;-58
2022/03/07 01:20:16;;;;;;;2.05;1.75;;;;;;;16.14;39.21;102795.44;5125965;28;20048;-57
2022/03/07 01:22:41;;;;;;;3.03;2.15;;;;;;;16.14;39.28;102797.25;5124594;28;20024;-58
2022/03/07 01:25:07;;;;;;;2.40;1.95;;;;;;;16.12;39.22;102789.31;5126348;28;20028;-58
2022/03/07 01:27:32;;;;;;;1.75;1.55;;;;;;;16.12;39.22;102796.50;5126089;28;20276;-57
2022/03/07 01:29:58;;;;;;;2.83;2.03;;;;;;;16.12;39.07;102796.50;5125614;28;20026;-58
2022/03/07 01:32:23;;;;;;;1.70;1.50;;;;;;;16.11;39.39;102794.78;5126183;28;20105;-57
2022/03/07 01:34:49;;;;;;;2.03;1.70;;;;;;;16.06;39.24;102786.19;5126103;28;20095;-57
2022/03/07 01:37:14;;;;;;;2.15;1.77;;;;;;;16.05;39.27;102790.69;5125641;28;20472;-57
2022/03/07 01:39:39;;;;;;;2.75;1.75;;;;;;;16.07;39.36;102799.50;5125506;28;20028;-57
2022/03/07 01:42:05;;;;;;;2.13;1.73;;;;;;;16.04;39.24;102794.34;5125837;28;20042;-58
2022/03/07 01:44:31;;;;;;;2.38;2.13;;;;;;;16.05;39.35;102793.34;5125026;28;20028;-59
2022/03/07 01:46:57;;;;;;;1.50;1.40;;;;;;;16.02;39.41;102790.06;5125339;28;20023;-59
2022/03/07 01:49:23;;;;;;;2.25;1.98;;;;;;;16.02;39.38;102790.91;5125830;28;20050;-58
2022/03/07 01:51:49;;;;;;;1.83;1.63;;;;;;;16.02;39.38;102798.97;5125272;28;20471;-58
2022/03/07 01:54:17;;;;;;;2.08;1.67;;;;;;;16.01;39.41;102794.53;5125476;28;20049;-58
2022/03/07 01:56:45;;;;;;;2.33;1.80;;;;;;;15.99;39.42;102788.44;5108548;28;20038;-58
2022/03/07 01:59:11;;;;;;;1.70;1.60;;;;;;;15.98;39.37;102786.72;5104798;28;20344;-58
2022/03/07 02:01:39;;;;;;;1.92;1.67;;;;;;;15.94;39.41;102785.19;5104911;28;20031;-58
2022/03/07 02:04:05;;;;;;;2.00;1.73;;;;;;;15.97;39.42;102790.34;5105335;28;20050;-58
2022/03/07 02:06:30;;;;;;;2.38;1.60;;;;;;;15.85;39.45;102773.25;5104787;28;20032;-58
2022/03/07 02:08:56;;;;;;;1.67;1.50;;;;;;;15.94;39.46;102786.06;5104768;28;20036;-58
2022/03/07 02:11:21;;;;;;;1.60;1.50;;;;;;;15.95;39.49;102786.91;5118634;28;20024;-58
2022/03/07 02:13:46;;;;;;;1.65;1.50;;;;;;;15.91;39.39;102786.25;5124984;28;20028;-58
2022/03/07 02:16:14;;;;;;;2.05;1.80;;;;;;;15.91;39.45;102782.72;5125162;28;20028;-58
2022/03/07 02:18:40;;;;;;;1.92;1.70;;;;;;;15.90;39.46;102784.53;5124796;28;20031;-55
2022/03/07 02:21:11;;;;;;;2.22;1.98;;;;;;;15.89;39.58;102784.66;5124650;28;20065;-58
2022/03/07 02:23:36;;;;;;;1.55;1.45;;;;;;;15.86;39.51;102780.34;5124798;28;20027;-56
2022/03/07 02:26:18;;;;;;;1.80;1.60;;;;;;;15.88;39.47;102783.75;5125155;28;20027;-58
2022/03/07 02:28:45;;;;;;;1.98;1.75;;;;;;;15.83;39.57;102785.91;5124238;28;20102;-58
2022/03/07 02:31:11;;;;;;;1.52;1.42;;;;;;;15.86;39.53;102788.38;5124922;28;20015;-58
2022/03/07 02:33:37;;;;;;;1.55;1.45;;;;;;;15.85;39.57;102785.81;5124773;28;20042;-57
2022/03/07 02:36:03;;;;;;;1.58;1.48;;;;;;;15.84;39.46;102781.41;5124770;28;20023;-58
2022/03/07 02:38:29;;;;;;;1.67;1.58;;;;;;;15.77;39.54;102769.38;5123970;28;20037;-57
2022/03/07 02:40:54;;;;;;;1.80;1.52;;;;;;;15.80;39.51;102783.44;5124703;28;20088;-58
2022/03/07 02:43:19;;;;;;;1.90;1.55;;;;;;;15.80;39.61;102783.44;5124188;28;20028;-58
2022/03/07 02:45:45;;;;;;;1.50;1.40;;;;;;;15.67;39.70;102772.69;5124576;28;20034;-58
2022/03/07 02:48:10;;;;;;;2.15;1.92;;;;;;;15.79;39.51;102780.84;5124103;28;20032;-58
2022/03/07 02:50:35;;;;;;;1.77;1.50;;;;;;;15.77;39.50;102782.78;5124505;28;20019;-58
2022/03/07 02:53:01;;;;;;;1.98;1.70;;;;;;;15.74;39.48;102783.84;5124108;28;20051;-58
2022/03/07 02:55:26;;;;;;;1.83;1.70;;;;;;;15.74;39.48;102773.13;5124529;28;20110;-54
2022/03/07 02:57:52;;;;;;;2.03;1.70;;;;;;;15.73;39.44;102782.97;5124131;28;20033;-58
2022/03/07 03:00:17;;;;;;;1.92;1.70;;;;;;;15.72;39.48;102775.06;5123899;28;20091;-58
2022/03/07 03:02:42;;;;;;;2.05;1.75;;;;;;;15.68;39.65;102769.03;5124145;28;20460;-57
2022/03/07 03:05:08;;;;;;;1.55;1.45;;;;;;;15.69;39.60;102770.75;5124626;28;20296;-58
2022/03/07 03:07:33;;;;;;;1.45;1.35;;;;;;;15.69;39.62;102769.88;5123451;28;20027;-58
2022/03/07 03:10:00;;;;;;;1.65;1.55;;;;;;;15.68;39.59;102776.22;5121473;27;20056;-58
2022/03/07 03:12:26;;;;;;;2.58;1.60;;;;;;;15.66;39.60;102764.72;5112824;28;20020;-58
2022/03/07 03:14:52;;;;;;;1.75;1.65;;;;;;;15.65;39.69;102760.31;5123464;28;20048;-57
2022/03/07 03:17:17;;;;;;;1.70;1.60;;;;;;;15.64;39.52;102767.50;5124553;28;20047;-58
2022/03/07 03:19:43;;;;;;;1.60;1.50;;;;;;;15.63;39.60;102764.88;5124289;28;20043;-58
2022/03/07 03:22:08;;;;;;;1.60;1.40;;;;;;;15.61;39.55;102765.00;5124030;28;20031;-57
2022/03/07 03:24:33;;;;;;;1.60;1.50;;;;;;;15.59;39.52;102766.94;5124374;28;20023;-58
2022/03/07 03:26:59;;;;;;;1.50;1.40;;;;;;;15.57;39.51;102760.78;5124217;28;20039;-58
2022/03/07 03:29:24;;;;;;;1.75;1.52;;;;;;;15.60;39.58;102774.00;5123725;28;20027;-58
2022/03/07 03:31:49;;;;;;;1.65;1.52;;;;;;;15.59;39.50;102772.28;5124125;28;20020;-58
2022/03/07 03:34:15;;;;;;;1.50;1.40;;;;;;;15.58;39.74;102786.63;5124460;28;20031;-58
2022/03/07 03:36:40;;;;;;;1.45;1.33;;;;;;;15.57;39.64;102782.25;5123031;28;20039;-58
2022/03/07 03:39:06;;;;;;;1.67;1.45;;;;;;;15.56;39.53;102774.31;5124055;28;20056;-58
2022/03/07 03:41:31;;;;;;;1.60;1.50;;;;;;;15.53;39.64;102780.72;5124181;28;20125;-58
2022/03/07 03:43:56;;;;;;;1.50;1.40;;;;;;;15.53;39.68;102783.41;5123296;28;20037;-58
2022/03/07 03:46:21;;;;;;;1.40;1.30;;;;;;;15.54;39.64;102781.56;5124036;28;20028;-59
2022/03/07 03:48:46;;;;;;;1.40;1.30;;;;;;;15.53;39.60;102783.41;5124173;28;20062;-57
2022/03/07 03:51:12;;;;;;;1.20;1.10;;;;;;;15.52;39.61;102788.88;5124067;28;20032;-58
2022/03/07 03:53:37;;;;;;;1.70;1.50;;;;;;;15.53;39.51;102785.22;5123691;28;20039;-58
2022/03/07 03:56:02;;;;;;;1.67;1.58;;;;;;;15.50;39.58;102776.44;5124382;28;20028;-58
2022/03/07 03:58:27;;;;;;;1.33;1.23;;;;;;;15.49;39.50;102772.00;5123583;28;20093;-58
2022/03/07 04:00:53;;;;;;;1.60;1.50;;;;;;;15.49;39.41;102782.75;5124057;28;20036;-58
2022/03/07 04:03:18;;;;;;;1.42;1.33;;;;;;;15.49;39.46;102777.38;5124206;28;20058;-58
2022/03/07 04:05:43;;;;;;;1.30;1.20;;;;;;;15.48;39.48;102767.63;5124033;28;20042;-58
2022/03/07 04:08:09;;;;;;;1.40;1.30;;;;;;;15.48;39.54;102772.97;5122939;28;20023;-58
2022/03/07 04:10:34;;;;;;;1.50;1.40;;;;;;;15.47;39.44;102768.59;5116393;28;20104;-58
2022/03/07 04:12:59;;;;;;;1.65;1.55;;;;;;;15.47;39.60;102773.09;5118884;28;20038;-58
2022/03/07 04:15:26;;;;;;;1.30;1.20;;;;;;;15.47;39.42;102778.47;5123435;28;20484;-58
2022/03/07 04:17:51;;;;;;;1.60;1.50;;;;;;;15.46;39.45;102774.91;5123725;28;20480;-58
2022/03/07 04:20:16;;;;;;;1.50;1.40;;;;;;;15.46;39.43;102780.28;5123673;28;20055;-57
2022/03/07 04:22:42;;;;;;;1.80;1.70;;;;;;;15.45;39.41;102777.69;5122958;28;20484;-58
2022/03/07 04:25:08;;;;;;;1.70;1.58;;;;;;;15.44;39.52;102776.81;5123785;28;20027;-57
2022/03/07 04:27:34;;;;;;;2.05;1.73;;;;;;;15.39;39.37;102767.38;5123793;28;20030;-58
2022/03/07 04:29:59;;;;;;;1.30;1.20;;;;;;;15.44;39.36;102775.97;5123166;28;20032;-58
2022/03/07 04:32:24;;;;;;;1.73;1.63;;;;;;;15.43;39.44;102776.94;5123498;28;20027;-59
2022/03/07 04:34:50;;;;;;;1.50;1.40;;;;;;;15.44;39.44;102775.97;5123771;28;20118;-58
2022/03/07 04:37:15;;;;;;;1.40;1.30;;;;;;;15.44;39.37;102767.94;5123236;28;20035;-58
2022/03/07 04:39:40;;;;;;;2.38;1.40;;;;;;;15.42;39.43;102759.09;5123284;28;20038;-57
2022/03/07 04:42:05;;;;;;;1.67;1.58;;;;;;;15.41;39.32;102765.44;5122224;28;20112;-59
2022/03/07 04:44:31;;;;;;;1.38;1.27;;;;;;;15.41;39.31;102757.41;5122944;28;20023;-58
2022/03/07 04:46:56;;;;;;;1.40;1.30;;;;;;;15.41;39.29;102760.06;5123635;28;20040;-58
2022/03/07 04:49:21;;;;;;;1.42;1.33;;;;;;;15.41;39.10;102766.28;5123364;28;20034;-58
2022/03/07 04:51:46;;;;;;;1.20;1.20;;;;;;;15.41;39.33;102770.81;5123050;28;20106;-58
2022/03/07 04:54:15;;;;;;;1.40;1.30;;;;;;;15.42;39.36;102769.84;5123545;28;20024;-58
2022/03/07 04:56:43;;;;;;;1.50;1.40;;;;;;;15.40;39.34;102774.44;5128518;28;20106;-58
2022/03/07 04:59:11;;;;;;;1.58;1.48;;;;;;;15.39;39.31;102778.94;5129359;28;20112;-57
2022/03/07 05:01:36;;;;;;;1.50;1.40;;;;;;;15.39;39.27;102778.94;5131393;27;20019;-58
2022/03/07 05:04:01;;;;;;;1.40;1.30;;;;;;;15.39;39.40;102781.63;5130444;28;20080;-58
2022/03/07 05:06:26;;;;;;;1.40;1.30;;;;;;;15.36;39.34;102779.16;5126801;28;20023;-57
2022/03/07 05:08:52;;;;;;;1.40;1.30;;;;;;;15.38;39.31;102789.78;5127024;28;20042;-58
2022/03/07 05:11:17;;;;;;;1.50;1.40;;;;;;;15.37;39.23;102798.75;5127292;28;20020;-55
2022/03/07 05:13:42;;;;;;;1.40;1.30;;;;;;;15.37;39.33;102804.13;5126647;28;20053;-58
2022/03/07 05:16:07;;;;;;;1.27;1.23;;;;;;;15.36;39.39;102800.59;5127091;28;20039;-56
2022/03/07 05:18:33;;;;;;;1.27;1.20;;;;;;;15.31;39.35;102793.81;5126792;28;20032;-58
2022/03/07 05:20:58;;;;;;;1.45;1.35;;;;;;;15.36;39.35;102805.09;5126759;28;20058;-58
2022/03/07 05:23:23;;;;;;;1.50;1.40;;;;;;;15.35;39.40;102809.59;5126058;28;20045;-58
2022/03/07 05:25:48;;;;;;;1.45;1.35;;;;;;;15.32;39.31;102807.09;5126881;28;20022;-58
2022/03/07 05:28:14;;;;;;;1.60;1.50;;;;;;;15.32;39.48;102804.41;5125939;28;20035;-55
2022/03/07 05:30:39;;;;;;;1.45;1.35;;;;;;;15.34;39.35;102813.25;5126416;28;20046;-58
2022/03/07 05:33:04;;;;;;;1.60;1.50;;;;;;;15.33;39.41;102805.28;5126374;28;20035;-58
2022/03/07 05:35:30;;;;;;;1.60;1.50;;;;;;;15.31;39.41;102816.09;5125337;28;20122;-58
2022/03/07 05:37:55;;;;;;;1.48;1.38;;;;;;;15.30;39.58;102809.03;5124976;28;20045;-57
2022/03/07 05:40:20;;;;;;;1.50;1.40;;;;;;;15.29;39.52;102809.09;5125445;28;20023;-58
2022/03/07 05:42:46;;;;;;;1.60;1.50;;;;;;;15.34;39.60;102815.06;5125647;28;20019;-57
2022/03/07 05:45:12;;;;;;;1.58;1.48;;;;;;;15.33;39.69;102808.81;5125532;28;20035;-56
2022/03/07 05:47:38;;;;;;;1.25;1.20;;;;;;;15.34;39.67;102809.69;5122660;28;20028;-56
2022/03/07 05:50:04;;;;;;;1.77;1.45;;;;;;;15.35;39.75;102806.91;5126037;28;20043;-57
2022/03/07 05:52:29;;;;;;;1.50;1.40;;;;;;;15.34;39.81;102807.03;5124954;28;20019;-58
2022/03/07 05:54:55;;;;;;;1.95;1.70;;;;;;;15.39;39.93;102816.47;5125308;28;20019;-58
2022/03/07 05:57:20;;;;;;;2.28;2.08;;;;;;;15.45;39.89;102808.03;5125196;28;20065;-58
2022/03/07 05:59:45;;;;;;;1.90;1.60;;;;;;;15.49;39.89;102803.31;5124712;28;20035;-58
2022/03/07 06:02:11;;;;;;;2.00;1.70;;;;;;;15.54;39.92;102803.88;5116036;28;20054;-58
2022/03/07 06:04:36;;;;;;;2.00;1.80;;;;;;;15.54;39.78;102798.53;5115327;28;20035;-59
2022/03/07 06:07:01;;;;;;;2.38;1.95;;;;;;;15.61;39.83;102805.22;5109836;28;20051;-58
2022/03/07 06:09:26;;;;;;;2.00;1.73;;;;;;;15.64;39.87;102817.56;5107752;28;20015;-57
2022/03/07 06:11:52;;;;;;;2.22;2.03;;;;;;;15.65;39.79;102812.13;5120898;28;20023;-57
2022/03/07 06:14:17;;;;;;;2.50;1.70;;;;;;;15.66;39.81;102813.84;5119354;28;20031;-57
2022/03/07 06:16:42;;;;;;;1.95;1.80;;;;;;;15.68;39.76;102814.63;5120171;28;20035;-56
2022/03/07 06:19:08;;;;;;;1.98;1.73;;;;;;;15.70;39.77;102814.50;5118727;28;20094;-57
2022/03/07 06:21:33;;;;;;;1.70;1.60;;;;;;;15.73;39.60;102819.66;5108453;28;20024;-57
2022/03/07 06:23:59;;;;;;;2.45;1.90;;;;;;;15.75;39.72;102829.31;5121831;28;20024;-58
2022/03/07 06:26:24;;;;;;;2.92;1.80;;;;;;;15.75;39.61;102825.78;5113025;28;20027;-58
2022/03/07 06:28:50;;;;;;;2.10;1.75;;;;;;;15.79;39.65;102829.13;5121227;28;20032;-57
2022/03/07 06:31:15;;;;;;;1.80;1.70;;;;;;;15.79;39.61;102821.94;5118203;28;20126;-57
2022/03/07 06:33:40;;;;;;;2.25;2.00;;;;;;;15.84;39.65;102817.13;5121470;28;20027;-58
2022/03/07 06:36:06;;;;;;;2.15;1.55;;;;;;;15.85;39.62;102818.00;5111625;28;20034;-56
2022/03/07 06:38:32;;;;;;;1.70;1.60;;;;;;;15.89;39.52;102824.88;5107535;28;20032;-57
2022/03/07 06:40:57;;;;;;;2.45;1.70;;;;;;;15.91;39.65;102825.63;5122091;28;20035;-58
2022/03/07 06:43:22;;;;;;;2.83;1.77;;;;;;;15.94;39.44;102820.94;5111565;28;20031;-58
2022/03/07 06:45:47;;;;;;;2.00;1.80;;;;;;;15.96;39.55;102827.03;5102782;28;20032;-58
2022/03/07 06:48:13;;;;;;;1.77;1.67;;;;;;;15.98;39.36;102824.28;5102153;28;20062;-57
2022/03/07 06:50:38;;;;;;;2.55;1.55;;;;;;;15.96;39.45;102810.94;5107616;28;20683;-58
2022/03/07 06:53:03;;;;;;;1.90;1.70;;;;;;;16.04;39.33;102814.94;5106817;28;20078;-58
2022/03/07 06:55:29;;;;;;;2.08;1.58;;;;;;;16.02;39.36;102803.47;5116525;28;20019;-58
2022/03/07 06:57:54;;;;;;;1.80;1.70;;;;;;;16.09;39.33;102813.66;5110432;28;20016;-58
2022/03/07 07:00:20;;;;;;;1.98;1.60;;;;;;;16.06;39.33;102796.94;5107524;28;20027;-56
2022/03/07 07:02:45;;;;;;;1.70;1.60;;;;;;;16.14;39.20;102799.94;5118636;28;20077;-58
2022/03/07 07:05:11;;;;;;;1.73;1.63;;;;;;;16.16;39.18;102801.56;5119821;28;20024;-57
2022/03/07 07:07:37;;;;;;;2.03;1.67;;;;;;;16.20;39.19;102808.44;5111485;28;20475;-57
2022/03/07 07:10:04;;;;;;;1.92;1.73;;;;;;;16.24;39.15;102807.25;5110183;28;20039;-55
2022/03/07 07:12:29;;;;;;;1.65;1.55;;;;;;;16.27;39.21;102808.88;5112755;28;20081;-58
2022/03/07 07:14:54;;;;;;;2.03;1.75;;;;;;;16.28;39.17;102804.38;5116100;28;20398;-56
2022/03/07 07:17:19;;;;;;;3.22;1.42;;;;;;;16.33;39.14;102805.78;5118132;28;20111;-55
2022/03/07 07:19:45;;;;;;;1.77;1.63;;;;;;;16.37;39.14;102806.41;5120066;28;20058;-57
2022/03/07 07:22:10;;;;;;;1.88;1.60;;;;;;;16.38;39.16;102789.34;5115033;28;20058;-59
2022/03/07 07:24:35;;;;;;;2.13;1.60;;;;;;;16.43;39.13;102806.84;5118192;28;20035;-56
2022/03/07 07:27:01;;;;;;;2.75;1.50;;;;;;;16.50;39.05;102799.22;5120095;28;20027;-58
2022/03/07 07:29:26;;;;;;;3.28;1.63;;;;;;;16.60;38.87;102804.81;5123062;28;20020;-57
2022/03/07 07:31:52;;;;;;;1.75;1.50;;;;;;;16.68;38.33;102800.63;5123095;28;20038;-56
2022/03/07 07:34:18;;;;;;;1.75;1.40;;;;;;;16.79;38.47;102797.22;5123720;28;20112;-57
2022/03/07 07:36:43;;;;;;;1.85;1.70;;;;;;;16.96;38.15;102790.66;5122597;28;20131;-57
2022/03/07 07:39:08;;;;;;;1.65;1.52;;;;;;;17.10;37.76;102797.72;5123194;28;20480;-58
2022/03/07 07:41:34;;;;;;;3.13;1.80;;;;;;;17.22;37.57;102811.13;5123226;28;20028;-57
2022/03/07 07:43:59;;;;;;;1.95;1.60;;;;;;;17.31;37.53;102800.66;5123068;28;20158;-57
2022/03/07 07:46:24;;;;;;;1.42;1.33;;;;;;;17.37;37.26;102811.81;5118577;28;20035;-57
2022/03/07 07:48:49;;;;;;;2.90;1.38;;;;;;;17.42;37.01;102814.19;5110838;28;20058;-57
2022/03/07 07:51:15;;;;;;;1.33;1.23;;;;;;;17.47;37.21;102812.88;5115054;28;20027;-58
2022/03/07 07:53:40;;;;;;;3.45;1.58;;;;;;;17.57;36.97;102820.25;5111893;28;20089;-57
2022/03/07 07:56:05;;;;;;;1.95;1.50;;;;;;;17.61;37.20;102824.44;5112201;28;20031;-56
2022/03/07 07:58:30;;;;;;;1.60;1.50;;;;;;;17.67;37.07;102829.34;5110231;28;20343;-56
2022/03/07 08:00:56;;;;;;;2.47;2.03;;;;;;;17.74;37.26;102826.13;5109594;28;20051;-58
2022/03/07 08:03:21;;;;;;;2.72;1.60;;;;;;;17.86;37.00;102821.69;5110857;28;20040;-57
2022/03/07 08:05:48;;;;;;;1.50;1.40;;;;;;;18.02;36.71;102829.47;5112645;28;20049;-56
2022/03/07 08:08:14;;;;;;;1.40;1.30;;;;;;;18.28;36.44;102829.31;5109276;28;20024;-58
2022/03/07 08:10:39;;;;;;;1.33;1.23;;;;;;;18.56;36.02;102836.94;5115535;28;20035;-57
2022/03/07 08:13:05;;;;;;;1.27;1.10;;;;;;;18.84;35.52;102829.44;5116693;28;20492;-57
2022/03/07 08:15:30;;;;;;;1.88;1.27;;;;;;;19.06;35.14;102831.28;5111841;28;20121;-57
2022/03/07 08:17:55;;;;;;;1.73;1.35;;;;;;;19.21;34.85;102830.91;5114468;28;20024;-57
2022/03/07 08:20:22;;;;;;;2.80;1.40;;;;;;;19.47;34.68;102834.19;5111371;28;20305;-58
2022/03/07 08:22:48;;;;;;;2.35;1.38;;;;;;;19.83;33.74;102829.44;5108405;28;20111;-57
2022/03/07 08:25:14;;;;;;;1.58;1.10;;;;;;;20.22;33.59;102836.03;5114765;28;20058;-57
2022/03/07 08:27:39;;;;;;;1.30;1.10;;;;;;;20.63;32.96;102836.19;5113505;28;20478;-58
2022/03/07 08:30:08;;;;;;;1.13;1.00;;;;;;;21.11;32.05;102838.25;5110596;28;20024;-57
2022/03/07 08:32:35;;;;;;;1.20;0.90;;;;;;;21.64;31.10;102830.75;5118835;28;20073;-56
2022/03/07 08:35:01;;;;;;;1.20;1.10;;;;;;;22.14;30.42;102836.09;5110359;28;20032;-58
2022/03/07 08:37:26;;;;;;;2.55;1.10;;;;;;;22.55;29.77;102833.19;5116789;28;20023;-58
2022/03/07 08:39:52;;;;;;;1.60;0.88;;;;;;;22.73;29.58;102834.16;5109959;28;20030;-58
2022/03/07 08:42:17;;;;;;;0.95;0.70;;;;;;;22.77;29.39;102837.38;5114057;28;20030;-58
2022/03/07 08:44:42;;;;;;;1.05;0.90;;;;;;;22.81;29.02;102838.81;5111188;28;20032;-58
2022/03/07 08:47:09;;;;;;;1.10;0.82;;;;;;;22.95;29.16;102835.66;5115255;28;20624;-58
2022/03/07 08:49:34;;;;;;;1.30;0.90;;;;;;;23.10;28.65;102836.88;5107421;28;20104;-58
2022/03/07 08:52:00;;;;;;;1.33;1.00;;;;;;;23.22;28.26;102840.25;5116358;28;20028;-58
2022/03/07 08:54:25;;;;;;;1.58;1.05;;;;;;;23.38;28.15;102845.03;5115566;28;20035;-59
2022/03/07 08:56:50;;;;;;;1.23;0.85;;;;;;;23.60;27.81;102832.88;5115588;28;20031;-58
2022/03/07 08:59:15;;;;;;;1.30;1.00;;;;;;;23.81;27.30;102840.78;5115697;28;20028;-59
2022/03/07 09:01:40;;;;;;;1.63;0.90;;;;;;;24.00;26.84;102837.91;5115771;28;20059;-58
2022/03/07 09:04:06;;;;;;;1.45;0.80;;;;;;;24.28;26.50;102835.06;5110292;28;20036;-59
2022/03/07 09:06:31;;;;;;;1.20;1.02;;;;;;;24.55;26.00;102834.09;5115019;28;20067;-59
2022/03/07 09:08:56;;;;;;;2.05;1.13;;;;;;;24.87;25.70;102841.63;5107005;28;20084;-58
2022/03/07 09:11:22;;;;;;;1.88;1.08;;;;;;;25.12;25.46;102829.88;5116042;28;20047;-59
2022/03/07 09:13:47;;;;;;;1.50;0.77;;;;;;;25.41;24.92;102837.63;5113079;28;20031;-58
2022/03/07 09:16:14;;;;;;;1.70;1.05;;;;;;;25.61;24.57;102823.72;5110463;28;20062;-58
2022/03/07 09:18:39;;;;;;;0.85;0.65;;;;;;;25.87;24.24;102826.34;5107831;28;20087;-58
2022/03/07 09:21:05;;;;;;;2.95;0.88;;;;;;;26.06;23.90;102823.28;5106144;28;20070;-57
2022/03/07 09:23:37;;;;;;;1.50;0.90;;;;;;;26.25;23.54;102819.38;5118495;28;20031;-58
2022/03/07 09:26:02;;;;;;;1.75;0.95;;;;;;;26.48;23.51;102822.28;5116152;28;20031;-59
2022/03/07 09:28:27;;;;;;;1.50;0.75;;;;;;;26.63;23.09;102823.28;5111029;28;20036;-58
2022/03/07 09:30:52;;;;;;;1.75;1.00;;;;;;;26.80;22.92;102825.94;5086299;28;20066;-58
2022/03/07 09:33:18;;;;;;;2.58;0.70;;;;;;;26.92;22.61;102825.38;5112115;28;20071;-59
2022/03/07 09:35:43;;;;;;;1.17;0.75;;;;;;;27.04;22.71;102820.41;5110986;28;20030;-58
2022/03/07 09:38:08;;;;;;;1.05;0.50;;;;;;;27.11;22.51;102806.94;5111430;28;20031;-58
2022/03/07 09:40:34;;;;;;;0.95;0.60;;;;;;;27.24;22.41;102817.28;5114253;27;20040;-57
2022/03/07 09:42:59;;;;;;;1.00;0.52;;;;;;;27.35;22.39;102814.13;5094203;28;20024;-58
2022/03/07 09:45:24;;;;;;;1.23;0.70;;;;;;;27.42;22.23;102810.50;5113296;28;20024;-58
2022/03/07 09:47:50;;;;;;;1.65;0.70;;;;;;;27.55;22.40;102809.91;5113696;28;20119;-58
2022/03/07 09:50:16;;;;;;;1.70;0.68;;;;;;;27.64;22.06;102814.28;5106076;28;20027;-56
2022/03/07 09:52:45;;;;;;;2.80;0.80;;;;;;;27.76;22.12;102824.84;5105727;28;20052;-58
2022/03/07 09:55:14;;;;;;;0.75;0.55;;;;;;;27.81;22.11;102816.94;5117641;28;20031;-56
2022/03/07 09:57:41;;;;;;;1.20;0.70;;;;;;;27.83;21.84;102809.44;5111533;28;20082;-57
2022/03/07 10:00:07;;;;;;;1.08;0.70;;;;;;;27.76;21.97;102811.19;5105296;28;20027;-56
2022/03/07 10:02:33;;;;;;;2.47;0.80;;;;;;;27.30;22.05;102811.94;5108759;28;20040;-55
2022/03/07 10:05:01;;;;;;;0.95;0.73;;;;;;;26.61;22.96;102814.41;5114937;28;20074;-58
2022/03/07 10:07:26;;;;;;;2.10;0.70;;;;;;;25.84;23.59;102813.91;5108430;28;20036;-53
2022/03/07 10:10:06;;;;;;;1.00;0.70;;;;;;;25.13;24.65;102814.38;5106698;28;20095;-58
2022/03/07 10:12:31;;;;;;;1.10;0.50;;;;;;;24.50;25.26;102809.25;5114511;28;20096;-58
2022/03/07 10:14:56;;;;;;;1.05;0.77;;;;;;;23.96;26.12;102809.34;5113982;28;20531;-58
2022/03/07 10:17:31;;;;;;;2.30;0.95;;;;;;;23.52;26.46;102803.78;5112308;28;20050;-56
2022/03/07 10:20:00;;;;;;;0.90;0.60;;;;;;;23.15;27.53;102803.84;5116604;28;20079;-57
2022/03/07 10:22:27;;;;;;;0.80;0.68;;;;;;;22.83;27.63;102797.00;5113203;28;20035;-57
2022/03/07 10:25:00;;;;;;;1.30;0.70;;;;;;;22.55;27.98;102787.94;5110811;28;20263;-57
2022/03/07 10:27:34;;;;;;;0.90;0.60;;;;;;;22.29;28.42;102793.16;5113056;28;20092;-54
2022/03/07 10:30:00;;;;;;;1.92;0.82;;;;;;;22.07;28.90;102782.59;5112105;28;20035;-58
2022/03/07 10:32:26;;;;;;;2.38;1.02;;;;;;;21.80;29.33;102767.94;5109295;28;20036;-55
2022/03/07 10:34:51;;;;;;;1.20;0.80;;;;;;;21.68;29.45;102779.91;5104610;28;20030;-58
2022/03/07 10:37:16;;;;;;;1.60;0.95;;;;;;;21.53;29.79;102781.31;5108706;28;20100;-57
2022/03/07 10:39:52;;;;;;;1.70;1.05;;;;;;;21.38;29.87;102775.47;5115036;28;20039;-58
2022/03/07 10:42:18;;;;;;;1.15;0.70;;;;;;;21.19;30.36;102777.06;5110501;28;20105;-56
2022/03/07 10:44:44;;;;;;;1.17;1.00;;;;;;;21.15;30.50;102775.66;5108745;27;20080;-56
2022/03/07 10:47:12;;;;;;;0.90;0.80;;;;;;;21.10;30.49;102777.06;5112213;28;20028;-56
2022/03/07 10:49:53;;;;;;;1.50;0.93;;;;;;;21.02;30.72;102779.59;5108340;28;20034;-57
2022/03/07 10:52:19;;;;;;;1.60;0.98;;;;;;;20.91;30.79;102765.19;5112661;28;20084;-57
2022/03/07 10:54:47;;;;;;;2.47;1.10;;;;;;;20.89;30.57;102777.97;5110112;28;20382;-52
2022/03/07 10:57:12;;;;;;;2.30;1.05;;;;;;;20.86;30.21;102761.19;5112874;28;20019;-56
2022/03/07 10:59:38;;;;;;;2.78;1.00;;;;;;;20.86;30.90;102756.66;5104284;28;20097;-57
2022/03/07 11:02:14;;;;;;;1.38;1.00;;;;;;;20.84;31.30;102753.22;5105076;28;20115;-57
2022/03/07 11:04:40;;;;;;;1.75;0.98;;;;;;;20.81;31.08;102748.06;5111239;28;20035;-56
2022/03/07 11:07:06;;;;;;;1.52;0.88;;;;;;;20.74;31.37;102744.22;5115473;28;20034;-54
2022/03/07 11:09:32;;;;;;;1.55;1.08;;;;;;;20.66;31.32;102747.59;5111709;28;20029;-56
2022/03/07 11:11:57;;;;;;;1.00;0.90;;;;;;;20.56;31.76;102744.00;5118139;28;20032;-57
2022/03/07 11:14:24;;;;;;;2.35;0.90;;;;;;;20.52;31.82;102741.69;5105303;28;20027;-58
2022/03/07 11:16:51;;;;;;;1.25;0.85;;;;;;;20.45;32.05;102742.19;5105647;28;20040;-57